createdAt,value
2022-10-28T00:02:40.087Z,61.70
2022-10-28T00:05:41.607Z,61.90
2022-10-28T00:08:43.723Z,62.20
2022-10-28T00:11:45.095Z,62.10
2022-10-28T00:14:46.386Z,62.00
2022-10-28T00:17:47.767Z,62.30
2022-10-28T00:20:52.394Z,62.20
2022-10-28T00:23:54.900Z,62.00
2022-10-28T00:26:56.342Z,62.00
2022-10-28T00:29:57.580Z,62.10
2022-10-28T00:33:02.209Z,62.40
2022-10-28T00:36:09.498Z,61.90
2022-10-28T00:39:12.898Z,61.60
2022-10-28T00:42:17.911Z,61.80
2022-10-28T00:45:19.456Z,61.70
2022-10-28T00:48:20.881Z,62.40
2022-10-28T00:51:26.533Z,62.10
2022-10-28T00:54:30.283Z,62.10
2022-10-28T00:57:34.593Z,62.00
2022-10-28T01:00:35.962Z,62.00
2022-10-28T01:03:37.569Z,62.10
2022-10-28T01:06:40.262Z,62.20
2022-10-28T01:09:43.034Z,62.10
2022-10-28T01:12:58.180Z,61.90
2022-10-28T01:16:06.350Z,62.30
2022-10-28T01:19:28.206Z,62.30
2022-10-28T01:22:36.703Z,62.20
2022-10-28T01:26:06.411Z,62.00
2022-10-28T01:29:32.853Z,62.00
2022-10-28T01:32:43.804Z,62.10
2022-10-28T01:35:53.246Z,62.10
2022-10-28T01:39:01.097Z,62.10
2022-10-28T01:42:13.509Z,62.00
2022-10-28T01:45:18.683Z,62.00
2022-10-28T01:48:25.377Z,61.80
2022-10-28T01:51:31.500Z,62.00
2022-10-28T01:54:34.689Z,61.80
2022-10-28T01:57:40.245Z,61.70
2022-10-28T02:00:43.931Z,61.80
2022-10-28T02:03:47.409Z,61.50
2022-10-28T02:06:52.719Z,61.80
2022-10-28T02:10:03.271Z,61.20
2022-10-28T02:13:11.426Z,61.10
2022-10-28T02:16:22.240Z,61.30
2022-10-28T02:19:35.291Z,61.10
2022-10-28T02:22:45.310Z,61.30
2022-10-28T02:25:54.563Z,61.10
2022-10-28T02:29:02.051Z,61.20
2022-10-28T02:32:07.581Z,61.10
2022-10-28T02:35:14.996Z,61.90
2022-10-28T02:38:20.541Z,61.20
2022-10-28T02:41:26.295Z,61.20
2022-10-28T02:44:30.719Z,61.10
2022-10-28T02:47:36.877Z,60.90
2022-10-28T02:50:43.216Z,61.20
2022-10-28T02:53:57.898Z,60.90
2022-10-28T02:57:03.638Z,61.00
2022-10-28T03:00:08.964Z,61.00
2022-10-28T03:03:10.648Z,60.90
2022-10-28T03:06:12.639Z,61.20
2022-10-28T03:09:17.166Z,61.30
2022-10-28T03:12:18.568Z,61.10
2022-10-28T03:15:19.863Z,61.10
2022-10-28T03:18:21.317Z,61.30
2022-10-28T03:21:23.187Z,61.40
2022-10-28T03:24:24.656Z,61.20
2022-10-28T03:27:26.114Z,60.80
2022-10-28T03:30:27.481Z,61.50
2022-10-28T03:33:28.862Z,61.60
2022-10-28T03:36:30.824Z,61.40
2022-10-28T03:39:35.540Z,61.50
2022-10-28T03:42:38.925Z,61.60
2022-10-28T03:45:42.582Z,61.60
2022-10-28T03:48:43.822Z,61.80
2022-10-28T03:51:45.824Z,62.00
2022-10-28T03:54:47.182Z,61.70
2022-10-28T03:57:52.081Z,61.80
2022-10-28T04:00:54.087Z,61.80
2022-10-28T04:03:55.530Z,61.60
2022-10-28T04:06:57.325Z,61.90
2022-10-28T04:09:58.947Z,62.00
2022-10-28T04:13:00.461Z,61.40
2022-10-28T04:16:01.884Z,62.10
2022-10-28T04:19:03.110Z,61.70
2022-10-28T04:22:05.204Z,62.20
2022-10-28T04:25:07.131Z,62.00
2022-10-28T04:28:08.826Z,61.90
2022-10-28T04:31:11.357Z,62.30
2022-10-28T04:34:12.927Z,62.10
2022-10-28T04:37:18.319Z,62.00
2022-10-28T04:40:22.182Z,62.00
2022-10-28T04:43:23.789Z,62.20
2022-10-28T04:46:25.182Z,62.30
2022-10-28T04:49:26.464Z,62.20
2022-10-28T04:52:28.495Z,62.70
2022-10-28T04:55:30.082Z,62.40
2022-10-28T04:58:31.695Z,62.70
2022-10-28T05:01:33.110Z,62.30
2022-10-28T05:04:34.622Z,62.50
2022-10-28T05:07:37.394Z,62.50
2022-10-28T05:10:38.922Z,62.60
2022-10-28T05:13:40.440Z,62.90
2022-10-28T05:16:41.920Z,62.20
2022-10-28T05:19:44.448Z,62.10
2022-10-28T05:22:47.221Z,62.70
2022-10-28T05:25:48.971Z,62.10
2022-10-28T05:28:50.879Z,62.00
2022-10-28T05:31:52.360Z,62.20
2022-10-28T05:34:53.857Z,62.20
2022-10-28T05:37:55.871Z,62.30
2022-10-28T05:40:57.314Z,62.50
2022-10-28T05:43:58.582Z,62.20
2022-10-28T05:47:00.054Z,62.30
2022-10-28T05:50:01.347Z,62.40
2022-10-28T05:53:03.587Z,62.40
2022-10-28T05:56:05.220Z,62.50
2022-10-28T05:59:06.832Z,62.60
2022-10-28T06:02:13.603Z,62.30
2022-10-28T06:05:15.468Z,62.40
2022-10-28T06:08:17.742Z,62.50
2022-10-28T06:11:17.741Z,62.30
2022-10-28T06:14:19.159Z,62.60
2022-10-28T06:17:20.441Z,62.40
2022-10-28T06:20:21.979Z,62.40
2022-10-28T06:23:26.368Z,62.30
2022-10-28T06:26:27.753Z,62.00
2022-10-28T06:29:30.157Z,62.20
2022-10-28T06:32:31.693Z,62.70
2022-10-28T06:35:33.153Z,62.00
2022-10-28T06:38:35.045Z,62.40
2022-10-28T06:41:36.495Z,62.40
2022-10-28T06:44:38.001Z,62.20
2022-10-28T06:47:41.697Z,62.10
2022-10-28T06:50:43.320Z,62.60
2022-10-28T06:53:48.625Z,62.50
2022-10-28T06:56:50.116Z,62.60
2022-10-28T06:59:51.697Z,62.30
2022-10-28T07:02:54.070Z,62.80
2022-10-28T07:05:59.635Z,62.60
2022-10-28T07:09:01.737Z,62.80
2022-10-28T07:12:05.467Z,63.00
2022-10-28T07:15:09.074Z,62.90
2022-10-28T07:18:10.478Z,62.90
2022-10-28T07:21:13.266Z,63.40
2022-10-28T07:24:15.364Z,63.40
2022-10-28T07:27:16.799Z,63.40
2022-10-28T07:30:18.609Z,63.80
2022-10-28T07:33:20.206Z,63.80
2022-10-28T07:36:21.948Z,63.30
2022-10-28T07:39:24.173Z,63.80
2022-10-28T07:42:27.714Z,63.70
2022-10-28T07:45:31.065Z,64.00
2022-10-28T07:48:32.881Z,64.10
2022-10-28T07:51:34.508Z,64.00
2022-10-28T07:54:36.569Z,63.90
2022-10-28T07:57:38.036Z,64.10
2022-10-28T08:00:40.266Z,64.00
2022-10-28T08:03:42.164Z,64.00
2022-10-28T08:06:43.761Z,64.10
2022-10-28T08:09:45.864Z,64.10
2022-10-28T08:12:47.289Z,64.00
2022-10-28T08:15:51.100Z,64.20
2022-10-28T08:18:52.791Z,64.10
2022-10-28T08:21:54.265Z,64.00
2022-10-28T08:24:56.285Z,63.80
2022-10-28T08:27:57.776Z,63.90
2022-10-28T08:31:08.513Z,64.40
2022-10-28T08:34:12.866Z,64.20
2022-10-28T08:37:15.375Z,64.20
2022-10-28T08:40:24.550Z,64.10
2022-10-28T08:43:46.184Z,63.80
2022-10-28T08:47:09.426Z,63.80
2022-10-28T08:50:15.224Z,63.60
2022-10-28T08:53:20.899Z,63.70
2022-10-28T08:56:30.203Z,63.40
2022-10-28T08:59:38.303Z,63.60
2022-10-28T09:02:50.585Z,63.80
2022-10-28T09:05:59.789Z,63.50
2022-10-28T09:09:01.245Z,63.50
2022-10-28T09:12:17.036Z,63.60
2022-10-28T09:15:31.409Z,63.40
2022-10-28T09:18:49.482Z,63.50
2022-10-28T09:22:07.424Z,63.40
2022-10-28T09:25:22.589Z,63.20
2022-10-28T09:28:42.350Z,63.10
2022-10-28T09:31:47.651Z,62.80
2022-10-28T09:34:53.488Z,63.20
2022-10-28T09:38:01.786Z,63.10
2022-10-28T09:41:07.389Z,62.70
2022-10-28T09:44:15.205Z,62.80
2022-10-28T09:47:21.681Z,62.80
2022-10-28T09:50:28.074Z,62.30
2022-10-28T09:53:40.240Z,62.50
2022-10-28T09:56:41.791Z,62.70
2022-10-28T09:59:44.141Z,62.70
2022-10-28T10:02:45.671Z,62.50
2022-10-28T10:05:51.732Z,62.50
2022-10-28T10:08:54.934Z,62.30
2022-10-28T10:12:01.652Z,62.30
2022-10-28T10:15:06.450Z,62.30
2022-10-28T10:18:16.624Z,62.00
2022-10-28T10:21:36.907Z,61.90
2022-10-28T10:24:44.579Z,62.20
2022-10-28T10:27:51.193Z,62.00
2022-10-28T10:30:57.037Z,61.70
2022-10-28T10:33:58.694Z,61.80
2022-10-28T10:40:20.778Z,61.80
2022-10-28T10:43:29.133Z,61.50
2022-10-28T10:46:31.225Z,61.40
2022-10-28T10:49:34.362Z,61.50
2022-10-28T10:52:36.099Z,61.40
2022-10-28T10:55:40.384Z,61.30
2022-10-28T10:58:50.831Z,61.20
2022-10-28T11:01:54.653Z,61.20
2022-10-28T11:04:59.064Z,60.90
2022-10-28T11:08:05.907Z,61.10
2022-10-28T11:11:12.557Z,61.00
2022-10-28T11:14:23.969Z,60.90
2022-10-28T11:17:27.179Z,60.70
2022-10-28T11:20:43.147Z,61.20
2022-10-28T11:23:55.437Z,60.70
2022-10-28T11:27:06.132Z,60.50
2022-10-28T11:30:13.765Z,60.40
2022-10-28T11:33:35.428Z,60.60
2022-10-28T11:36:43.436Z,60.60
2022-10-28T11:40:00.655Z,60.40
2022-10-28T11:43:14.353Z,60.40
2022-10-28T11:46:29.957Z,60.40
2022-10-28T11:50:00.885Z,60.30
2022-10-28T11:53:27.382Z,60.30
2022-10-28T11:56:34.874Z,60.00
2022-10-28T12:00:01.998Z,60.20
2022-10-28T12:03:27.591Z,60.10
2022-10-28T12:06:47.724Z,60.10
2022-10-28T12:10:06.210Z,59.80
2022-10-28T12:13:15.666Z,60.10
2022-10-28T12:16:25.534Z,59.80
2022-10-28T12:19:31.984Z,59.60
2022-10-28T12:22:42.579Z,59.90
2022-10-28T12:25:48.655Z,59.50
2022-10-28T12:28:54.592Z,59.80
2022-10-28T12:32:01.199Z,59.60
2022-10-28T12:35:07.422Z,59.50
2022-10-28T12:38:14.653Z,59.60
2022-10-28T12:41:23.282Z,59.40
2022-10-28T12:44:27.403Z,59.60
2022-10-28T12:47:42.105Z,59.50
2022-10-28T12:50:51.328Z,59.20
2022-10-28T12:53:58.012Z,59.30
2022-10-28T12:57:07.513Z,59.20
2022-10-28T13:00:17.755Z,59.20
2022-10-28T13:03:19.255Z,59.30
2022-10-28T13:06:57.462Z,59.30
2022-10-28T13:10:11.475Z,59.20
2022-10-28T13:13:25.797Z,59.10
2022-10-28T13:16:45.579Z,59.00
2022-10-28T13:20:00.010Z,59.20
2022-10-28T13:23:20.299Z,59.10
2022-10-28T13:26:26.395Z,59.10
2022-10-28T13:29:31.753Z,59.10
2022-10-28T13:32:38.709Z,58.80
2022-10-28T13:35:41.225Z,59.10
2022-10-28T13:38:48.409Z,59.10
2022-10-28T13:42:25.230Z,59.00
2022-10-28T13:45:47.572Z,59.00
2022-10-28T13:48:49.061Z,59.00
2022-10-28T13:51:51.477Z,59.00
2022-10-28T13:54:58.339Z,58.80
2022-10-28T13:58:04.531Z,59.00
2022-10-28T14:01:34.703Z,59.00
2022-10-28T14:04:39.567Z,58.90
2022-10-28T14:07:53.054Z,59.10
2022-10-28T14:11:01.270Z,59.30
2022-10-28T14:14:06.492Z,59.00
2022-10-28T14:17:20.183Z,58.90
2022-10-28T14:20:28.663Z,59.00
2022-10-28T14:23:57.396Z,59.00
2022-10-28T14:27:19.907Z,59.00
2022-10-28T14:30:23.325Z,59.30
2022-10-28T14:33:24.731Z,58.80
2022-10-28T14:36:31.117Z,58.80
2022-10-28T14:39:44.750Z,58.80
2022-10-28T14:43:12.059Z,58.90
2022-10-28T14:46:28.990Z,59.00
2022-10-28T14:49:33.530Z,58.90
2022-10-28T14:52:37.082Z,58.80
2022-10-28T14:55:39.065Z,58.80
2022-10-28T14:58:42.540Z,58.70
2022-10-28T15:01:57.758Z,58.70
2022-10-28T15:05:02.522Z,58.90
2022-10-28T15:08:04.631Z,58.90
2022-10-28T15:11:07.074Z,58.90
2022-10-28T15:14:25.311Z,58.70
2022-10-28T15:17:31.204Z,58.80
2022-10-28T15:20:35.234Z,58.60
2022-10-28T15:23:36.671Z,58.50
2022-10-28T15:26:38.145Z,59.10
2022-10-28T15:29:41.897Z,59.50
2022-10-28T15:32:44.189Z,58.80
2022-10-28T15:35:46.648Z,58.80
2022-10-28T15:38:49.552Z,58.90
2022-10-28T15:41:55.592Z,58.80
2022-10-28T15:44:59.054Z,58.70
2022-10-28T15:48:09.602Z,59.00
2022-10-28T15:51:16.107Z,58.90
2022-10-28T15:54:19.225Z,58.60
2022-10-28T15:57:21.675Z,58.70
2022-10-28T16:00:25.142Z,58.70
2022-10-28T16:03:39.700Z,58.70
2022-10-28T16:06:41.205Z,58.70
2022-10-28T16:09:45.683Z,58.70
2022-10-28T16:12:47.211Z,58.50
2022-10-28T16:15:54.036Z,58.50
2022-10-28T16:19:04.813Z,58.30
2022-10-28T16:22:09.974Z,58.30
2022-10-28T16:25:13.896Z,58.50
2022-10-28T16:28:20.991Z,58.50
2022-10-28T16:31:27.537Z,58.40
2022-10-28T16:34:29.778Z,58.40
2022-10-28T16:37:33.578Z,58.40
2022-10-28T16:40:50.956Z,58.60
2022-10-28T16:43:54.973Z,58.50
2022-10-28T16:46:56.457Z,58.30
2022-10-28T16:49:58.614Z,58.50
2022-10-28T16:53:00.227Z,58.50
2022-10-28T16:56:01.895Z,58.30
2022-10-28T16:59:03.541Z,58.30
2022-10-28T17:02:14.996Z,58.60
2022-10-28T17:05:19.595Z,58.50
2022-10-28T17:08:42.132Z,58.30
2022-10-28T17:11:42.638Z,58.50
2022-10-28T17:14:44.035Z,58.60
2022-10-28T17:17:49.139Z,58.90
2022-10-28T17:20:59.887Z,58.60
2022-10-28T17:24:01.542Z,58.70
2022-10-28T17:27:03.489Z,58.80
2022-10-28T17:30:06.026Z,58.80
2022-10-28T17:33:08.439Z,58.90
2022-10-28T17:36:10.475Z,59.10
2022-10-28T17:39:17.018Z,59.30
2022-10-28T17:42:20.160Z,59.20
2022-10-28T17:45:22.246Z,59.20
2022-10-28T17:48:23.687Z,59.00
2022-10-28T17:51:26.030Z,59.20
2022-10-28T17:54:27.814Z,59.50
2022-10-28T17:57:29.295Z,59.30
2022-10-28T18:00:30.723Z,59.50
2022-10-28T18:03:38.073Z,59.50
2022-10-28T18:06:40.818Z,59.60
2022-10-28T18:09:42.418Z,59.30
2022-10-28T18:12:43.777Z,59.50
2022-10-28T18:15:45.338Z,59.40
2022-10-28T18:18:46.824Z,59.80
2022-10-28T18:21:48.914Z,59.80
2022-10-28T18:24:55.910Z,59.70
2022-10-28T18:27:57.464Z,59.70
2022-10-28T18:31:00.999Z,59.80
2022-10-28T18:34:03.192Z,59.70
2022-10-28T18:37:07.575Z,59.60
2022-10-28T18:40:10.774Z,59.90
2022-10-28T18:43:12.154Z,59.60
2022-10-28T18:46:13.884Z,60.00
2022-10-28T18:49:15.322Z,60.10
2022-10-28T18:52:17.327Z,60.00
2022-10-28T18:55:21.901Z,60.00
2022-10-28T18:58:25.682Z,60.20
2022-10-28T19:01:28.343Z,60.00
2022-10-28T19:04:29.959Z,59.80
2022-10-28T19:07:32.170Z,60.30
2022-10-28T19:10:33.750Z,59.90
2022-10-28T19:13:37.134Z,59.90
2022-10-28T19:16:38.513Z,60.40
2022-10-28T19:19:39.787Z,60.10
2022-10-28T19:22:41.804Z,60.60
2022-10-28T19:25:52.645Z,60.20
2022-10-28T19:28:54.431Z,60.10
2022-10-28T19:31:56.026Z,60.40
2022-10-28T19:34:57.465Z,60.20
2022-10-28T19:37:59.292Z,60.40
2022-10-28T19:41:02.357Z,60.70
2022-10-28T19:44:04.205Z,60.20
2022-10-28T19:47:06.596Z,60.50
2022-10-28T19:50:08.869Z,60.40
2022-10-28T19:53:10.850Z,60.50
2022-10-28T19:56:17.971Z,60.70
2022-10-28T19:59:21.076Z,60.60
2022-10-28T20:02:22.646Z,60.90
2022-10-28T20:05:24.094Z,60.70
2022-10-28T20:08:25.947Z,60.90
2022-10-28T20:11:30.849Z,61.10
2022-10-28T20:14:33.327Z,60.90
2022-10-28T20:17:34.769Z,60.30
2022-10-28T20:20:36.015Z,60.90
2022-10-28T20:23:38.129Z,61.30
2022-10-28T20:26:39.792Z,60.90
2022-10-28T20:29:41.310Z,61.00
2022-10-28T20:32:42.732Z,61.10
2022-10-28T20:35:44.122Z,61.20
2022-10-28T20:38:46.047Z,61.20
2022-10-28T20:41:50.255Z,61.20
2022-10-28T20:44:51.737Z,60.80
2022-10-28T20:47:53.228Z,61.40
2022-10-28T20:50:56.087Z,60.90
2022-10-28T20:53:58.740Z,60.90
2022-10-28T20:57:00.443Z,60.80
2022-10-28T21:00:07.206Z,61.20
2022-10-28T21:03:10.070Z,60.90
2022-10-28T21:09:15.863Z,61.00
2022-10-28T21:12:17.609Z,61.00
2022-10-28T21:15:19.104Z,61.10
2022-10-28T21:18:20.692Z,61.50
2022-10-28T21:21:23.649Z,61.40
2022-10-28T21:24:25.635Z,61.40
2022-10-28T21:27:27.268Z,61.40
2022-10-28T21:30:28.808Z,61.60
2022-10-28T21:33:30.572Z,61.90
2022-10-28T21:36:32.003Z,61.60
2022-10-28T21:39:35.078Z,61.70
2022-10-28T21:42:36.614Z,61.80
2022-10-28T21:45:37.979Z,61.80
2022-10-28T21:48:39.255Z,62.20
2022-10-28T21:51:41.466Z,62.20
2022-10-28T21:54:43.445Z,62.10
2022-10-28T21:57:48.086Z,62.10
2022-10-28T22:00:49.562Z,62.40
2022-10-28T22:03:54.239Z,62.70
2022-10-28T22:06:55.804Z,62.60
2022-10-28T22:09:58.133Z,62.70
2022-10-28T22:12:59.644Z,62.90
2022-10-28T22:16:03.215Z,62.80
2022-10-28T22:19:06.651Z,62.80
2022-10-28T22:22:08.062Z,62.90
2022-10-28T22:25:10.608Z,63.00
2022-10-28T22:28:12.548Z,62.90
2022-10-28T22:31:16.139Z,63.20
2022-10-28T22:34:17.549Z,63.00
2022-10-28T22:37:18.780Z,63.90
2022-10-28T22:40:20.753Z,63.70
2022-10-28T22:43:25.232Z,63.30
2022-10-28T22:46:29.061Z,63.40
2022-10-28T22:49:30.408Z,63.50
2022-10-28T22:52:31.744Z,63.50
2022-10-28T22:55:33.707Z,63.70
2022-10-28T22:58:35.353Z,63.40
2022-10-28T23:01:37.688Z,63.70
2022-10-28T23:04:39.180Z,63.60
2022-10-28T23:07:40.413Z,63.80
2022-10-28T23:10:42.417Z,64.20
2022-10-28T23:13:43.989Z,63.90
2022-10-28T23:16:47.713Z,63.80
2022-10-28T23:19:49.074Z,63.40
2022-10-28T23:22:50.546Z,63.50
2022-10-28T23:25:53.360Z,63.90
2022-10-28T23:28:56.379Z,63.80
2022-10-28T23:31:58.053Z,63.80
2022-10-28T23:34:59.464Z,63.60
2022-10-28T23:38:00.871Z,63.80
2022-10-28T23:41:04.583Z,64.10
2022-10-28T23:44:05.948Z,63.60
2022-10-28T23:47:07.219Z,64.00
2022-10-28T23:50:10.180Z,64.10
2022-10-28T23:53:11.700Z,63.60
2022-10-28T23:56:13.666Z,63.70
2022-10-28T23:59:15.349Z,63.80
